Lujan de Cuyo, Argentina
Current Conditions -  °F | °C
As of 9:00 AM on Wednesday 28 Jan 2015 (Local Time) from SAME Reporting Station
Few Clouds Few Clouds  
Wind Chill: 79°   Ceiling: Unl
Heat Index: 79°   Visibility: 6mi
Dew Point: 55°   Wind: 12mph
Humidity: 44%   Direction: 140°SE
Pressure: 29.91"   Gusts: NA
Location:  33.05°S, 68.87°W
Report Text: SAME 281200Z 14010KT 9999 FEW040 26/13 Q1013
Loading
Personal Weather Stations






























Interactive Weather Map New forecast layout! Learn more

10-Day Weather Forecast

Advertisements
Track Severe Weather on mobile